Time;durP1;ratioP1;P1;durP2;ratioP2;P2;SDS_P1;SDS_P2;PMS_P1;PMS_P2;Temp;Humidity;BMP_temperature;BMP_pressure;BME280_temperature;BME280_humidity;BME280_pressure;Samples;Min_cycle;Max_cycle;Signal;HPM_P1;HPM_P2
2022/05/19 00:01:53;;;;;;;4.63;3.00;;;;;;;;;;5033471;28;20198;-86
2022/05/19 00:04:20;;;;;;;3.10;2.80;;;;;;;;;;5031201;28;20230;-86
2022/05/19 00:06:47;;;;;;;3.27;2.97;;;;;;;;;;5033797;28;20568;-86
2022/05/19 00:09:15;;;;;;;3.33;3.03;;;;;;;;;;5035154;28;20238;-86
2022/05/19 00:11:42;;;;;;;4.53;3.43;;;;;;;;;;5035696;28;20230;-85
2022/05/19 00:14:11;;;;;;;4.00;3.53;;;;;;;;;;5035021;28;20260;-86
2022/05/19 00:16:38;;;;;;;3.27;2.97;;;;;;;;;;5036119;28;20214;-86
2022/05/19 00:19:05;;;;;;;3.03;2.83;;;;;;;;;;5035238;28;20649;-86
2022/05/19 00:21:32;;;;;;;7.00;3.30;;;;;;;;;;5035795;28;20580;-85
2022/05/19 00:23:59;;;;;;;4.03;3.20;;;;;;;;;;5054710;28;20736;-85
2022/05/19 00:26:26;;;;;;;3.77;3.47;;;;;;;;;;5055436;28;20210;-85
2022/05/19 00:28:53;;;;;;;8.07;3.17;;;;;;;;;;5054905;28;20241;-85
2022/05/19 00:31:22;;;;;;;5.77;3.70;;;;;;;;;;5055350;28;20225;-85
2022/05/19 00:33:49;;;;;;;4.07;3.10;;;;;;;;;;5054673;28;20625;-85
2022/05/19 00:36:17;;;;;;;3.97;3.53;;;;;;;;;;5055203;28;20210;-85
2022/05/19 00:38:45;;;;;;;4.00;3.27;;;;;;;;;;5054979;28;20292;-85
2022/05/19 00:41:12;;;;;;;3.73;3.00;;;;;;;;;;5055313;28;20218;-85
2022/05/19 00:43:41;;;;;;;5.63;3.27;;;;;;;;;;5054871;28;20230;-85
2022/05/19 00:46:09;;;;;;;3.77;3.47;;;;;;;;;;5062740;28;20210;-85
2022/05/19 00:48:44;;;;;;;5.90;3.60;;;;;;;;;;5076485;28;20233;-85
2022/05/19 00:51:11;;;;;;;4.13;3.10;;;;;;;;;;5076562;28;20230;-85
2022/05/19 00:53:42;;;;;;;5.03;3.30;;;;;;;;;;5065745;28;20233;-85
2022/05/19 00:56:12;;;;;;;3.60;3.20;;;;;;;;;;5056028;28;20190;-85
2022/05/19 00:58:41;;;;;;;4.07;3.33;;;;;;;;;;5052685;28;20240;-85
2022/05/19 01:01:08;;;;;;;3.57;3.23;;;;;;;;;;5054819;28;20634;-85
2022/05/19 01:03:38;;;;;;;6.67;3.03;;;;;;;;;;5054435;28;20238;-85
2022/05/19 01:06:09;;;;;;;3.57;3.20;;;;;;;;;;5049260;28;20202;-85
2022/05/19 01:08:38;;;;;;;3.50;3.20;;;;;;;;;;5036999;28;20718;-85
2022/05/19 01:11:06;;;;;;;3.83;3.40;;;;;;;;;;5034833;28;20317;-85
2022/05/19 01:13:35;;;;;;;3.47;3.17;;;;;;;;;;5054112;28;20241;-85
2022/05/19 01:16:02;;;;;;;5.93;3.40;;;;;;;;;;5054784;28;20252;-85
2022/05/19 01:18:30;;;;;;;3.50;3.20;;;;;;;;;;5053545;28;20713;-85
2022/05/19 01:20:58;;;;;;;3.30;3.03;;;;;;;;;;5054696;28;20228;-85
2022/05/19 01:23:30;;;;;;;4.10;3.27;;;;;;;;;;5051694;28;20284;-85
2022/05/19 01:26:00;;;;;;;4.00;3.50;;;;;;;;;;5034520;28;20198;-85
2022/05/19 01:28:29;;;;;;;7.50;3.50;;;;;;;;;;5035224;28;20230;-85
2022/05/19 01:30:56;;;;;;;3.43;3.13;;;;;;;;;;5035876;28;20235;-85
2022/05/19 01:33:23;;;;;;;6.90;3.43;;;;;;;;;;5034932;28;20698;-85
2022/05/19 01:35:50;;;;;;;5.33;3.20;;;;;;;;;;5036385;28;20576;-85
2022/05/19 01:38:20;;;;;;;3.20;3.00;;;;;;;;;;5035337;28;20226;-85
2022/05/19 01:40:52;;;;;;;3.50;3.20;;;;;;;;;;5035013;28;20223;-84
2022/05/19 01:43:23;;;;;;;3.47;3.20;;;;;;;;;;5033428;28;20603;-83
2022/05/19 01:45:57;;;;;;;3.30;3.00;;;;;;;;;;5034196;28;20643;-83
2022/05/19 01:48:28;;;;;;;3.77;3.47;;;;;;;;;;5034063;28;20230;-84
2022/05/19 01:50:58;;;;;;;3.67;3.20;;;;;;;;;;5034257;28;20223;-83
2022/05/19 01:53:27;;;;;;;4.73;3.30;;;;;;;;;;5033836;28;20238;-84
2022/05/19 01:55:57;;;;;;;4.00;3.50;;;;;;;;;;5035061;28;20237;-84
2022/05/19 01:58:26;;;;;;;3.07;2.87;;;;;;;;;;5034518;28;20230;-83
2022/05/19 02:00:56;;;;;;;5.20;4.00;;;;;;;;;;5034674;28;20226;-84
2022/05/19 02:03:26;;;;;;;4.03;3.50;;;;;;;;;;5033943;28;20230;-84
2022/05/19 02:05:55;;;;;;;3.47;3.17;;;;;;;;;;5033919;28;20213;-84
2022/05/19 02:08:30;;;;;;;6.67;3.37;;;;;;;;;;5043082;28;20249;-84
2022/05/19 02:11:01;;;;;;;3.60;3.30;;;;;;;;;;5034173;28;20729;-84
2022/05/19 02:13:30;;;;;;;3.30;3.00;;;;;;;;;;5033381;28;20249;-84
2022/05/19 02:16:02;;;;;;;3.13;2.83;;;;;;;;;;5033794;28;20210;-84
2022/05/19 02:18:29;;;;;;;4.77;3.30;;;;;;;;;;5033135;28;20230;-84
2022/05/19 02:20:58;;;;;;;4.30;3.23;;;;;;;;;;5033463;28;20231;-84
2022/05/19 02:23:25;;;;;;;5.73;3.17;;;;;;;;;;5032791;28;20545;-84
2022/05/19 02:25:53;;;;;;;3.80;3.40;;;;;;;;;;5033083;28;20210;-84
2022/05/19 02:28:23;;;;;;;3.33;3.10;;;;;;;;;;5032481;28;20281;-84
2022/05/19 02:30:50;;;;;;;6.23;3.80;;;;;;;;;;5032059;28;20233;-84
2022/05/19 02:33:19;;;;;;;4.07;3.73;;;;;;;;;;5034709;28;20242;-85
2022/05/19 02:35:46;;;;;;;4.10;3.30;;;;;;;;;;5033377;28;20674;-85
2022/05/19 02:38:14;;;;;;;3.50;3.20;;;;;;;;;;5032626;28;20588;-85
2022/05/19 02:40:41;;;;;;;5.97;3.77;;;;;;;;;;5032565;28;20845;-85
2022/05/19 02:43:08;;;;;;;3.60;3.30;;;;;;;;;;5032362;28;20238;-85
2022/05/19 02:45:36;;;;;;;3.73;3.43;;;;;;;;;;5032782;28;20211;-85
2022/05/19 02:48:03;;;;;;;6.57;3.87;;;;;;;;;;5032567;28;20572;-85
2022/05/19 02:50:32;;;;;;;4.57;3.33;;;;;;;;;;5032881;28;20234;-85
2022/05/19 02:52:59;;;;;;;3.60;3.30;;;;;;;;;;5032508;28;20574;-85
2022/05/19 02:55:26;;;;;;;4.10;3.37;;;;;;;;;;5032496;28;20218;-85
2022/05/19 02:57:53;;;;;;;4.83;3.30;;;;;;;;;;5031928;28;20210;-85
2022/05/19 03:00:22;;;;;;;6.17;3.50;;;;;;;;;;5032131;28;20230;-85
2022/05/19 03:02:50;;;;;;;5.63;3.23;;;;;;;;;;5032458;28;20210;-85
2022/05/19 03:05:18;;;;;;;6.70;3.20;;;;;;;;;;5032661;28;20221;-85
2022/05/19 03:07:47;;;;;;;3.17;2.87;;;;;;;;;;5032660;28;20213;-85
2022/05/19 03:10:14;;;;;;;4.10;3.70;;;;;;;;;;5032511;28;20345;-85
2022/05/19 03:12:41;;;;;;;7.57;3.23;;;;;;;;;;5032713;28;20218;-85
2022/05/19 03:15:09;;;;;;;5.37;3.60;;;;;;;;;;5031700;28;20269;-85
2022/05/19 03:17:36;;;;;;;5.83;3.30;;;;;;;;;;5032298;28;20207;-85
2022/05/19 03:20:04;;;;;;;3.57;3.27;;;;;;;;;;5031793;28;20242;-85
2022/05/19 03:22:32;;;;;;;3.63;3.30;;;;;;;;;;5032374;28;20766;-84
2022/05/19 03:25:00;;;;;;;4.10;3.70;;;;;;;;;;5032017;28;20237;-85
2022/05/19 03:27:27;;;;;;;4.73;3.27;;;;;;;;;;5032793;28;20210;-84
2022/05/19 03:29:54;;;;;;;5.60;3.50;;;;;;;;;;5031901;28;20239;-84
2022/05/19 03:32:22;;;;;;;5.40;2.87;;;;;;;;;;5032082;28;20237;-84
2022/05/19 03:34:49;;;;;;;6.10;3.43;;;;;;;;;;5031525;28;20237;-84
2022/05/19 03:37:16;;;;;;;4.97;3.37;;;;;;;;;;5032427;28;20213;-84
2022/05/19 03:39:43;;;;;;;4.73;3.30;;;;;;;;;;5031609;28;20729;-84
2022/05/19 03:42:11;;;;;;;3.80;3.50;;;;;;;;;;5036887;28;20675;-84
2022/05/19 03:44:39;;;;;;;4.30;3.30;;;;;;;;;;5038241;28;20237;-84
2022/05/19 03:47:07;;;;;;;9.03;3.83;;;;;;;;;;5038605;28;20233;-84
2022/05/19 03:49:34;;;;;;;10.97;3.27;;;;;;;;;;5038055;28;20267;-85
2022/05/19 03:52:01;;;;;;;3.83;3.53;;;;;;;;;;5038351;28;20230;-84
2022/05/19 03:54:28;;;;;;;5.47;3.67;;;;;;;;;;5038136;28;20237;-84
2022/05/19 03:56:55;;;;;;;4.87;3.73;;;;;;;;;;5038888;28;20206;-84
2022/05/19 03:59:25;;;;;;;3.73;3.43;;;;;;;;;;5038576;28;20234;-84
2022/05/19 04:01:52;;;;;;;3.63;3.33;;;;;;;;;;5057679;28;20646;-85
2022/05/19 04:04:19;;;;;;;8.00;3.30;;;;;;;;;;5057525;28;20241;-84
2022/05/19 04:06:46;;;;;;;3.93;3.50;;;;;;;;;;5058329;28;20206;-84
2022/05/19 04:09:13;;;;;;;3.50;3.17;;;;;;;;;;5057870;28;20240;-84
2022/05/19 04:11:40;;;;;;;4.87;3.17;;;;;;;;;;5057713;28;20221;-85
2022/05/19 04:14:09;;;;;;;3.47;3.17;;;;;;;;;;5057626;28;20241;-85
2022/05/19 04:16:37;;;;;;;3.70;2.90;;;;;;;;;;5048909;28;20213;-85
2022/05/19 04:19:05;;;;;;;3.50;3.20;;;;;;;;;;5037681;28;20261;-85
2022/05/19 04:21:33;;;;;;;4.70;3.30;;;;;;;;;;5038502;28;20210;-84
2022/05/19 04:24:00;;;;;;;4.43;3.43;;;;;;;;;;5055995;28;20229;-84
2022/05/19 04:26:27;;;;;;;5.83;3.40;;;;;;;;;;5058432;28;20288;-85
2022/05/19 04:28:54;;;;;;;6.77;2.93;;;;;;;;;;5057534;28;20236;-85
2022/05/19 04:31:22;;;;;;;6.10;2.80;;;;;;;;;;5057583;28;20226;-85
2022/05/19 04:33:50;;;;;;;5.23;2.97;;;;;;;;;;5042597;28;20265;-83
2022/05/19 04:36:17;;;;;;;3.10;2.87;;;;;;;;;;5052391;28;20572;-84
2022/05/19 04:38:44;;;;;;;3.43;2.93;;;;;;;;;;5057743;28;20229;-83
2022/05/19 04:41:11;;;;;;;3.20;2.90;;;;;;;;;;5058190;28;20586;-84
2022/05/19 04:43:39;;;;;;;3.30;3.00;;;;;;;;;;5066808;28;20252;-83
2022/05/19 04:46:06;;;;;;;3.17;2.87;;;;;;;;;;5063307;28;20206;-83
2022/05/19 04:48:33;;;;;;;6.20;2.90;;;;;;;;;;5061372;28;20229;-83
2022/05/19 04:51:02;;;;;;;5.00;2.67;;;;;;;;;;5039469;28;20226;-83
2022/05/19 04:53:29;;;;;;;3.67;3.03;;;;;;;;;;5060128;28;20221;-84
2022/05/19 04:55:56;;;;;;;3.27;2.97;;;;;;;;;;5071701;28;20205;-83
2022/05/19 04:58:24;;;;;;;3.13;2.90;;;;;;;;;;5068326;28;20249;-83
2022/05/19 05:00:51;;;;;;;3.87;2.80;;;;;;;;;;5070923;28;20229;-83
2022/05/19 05:03:19;;;;;;;4.33;2.87;;;;;;;;;;5069404;28;20234;-83
2022/05/19 05:05:46;;;;;;;3.83;3.00;;;;;;;;;;5063395;28;20209;-82
2022/05/19 05:08:14;;;;;;;4.20;3.00;;;;;;;;;;5054977;28;20234;-80
2022/05/19 05:10:42;;;;;;;3.50;2.90;;;;;;;;;;5056117;28;20580;-81
2022/05/19 05:13:10;;;;;;;3.67;2.80;;;;;;;;;;5054456;28;20234;-81
2022/05/19 05:15:38;;;;;;;3.53;3.23;;;;;;;;;;5055843;28;20217;-82
2022/05/19 05:18:05;;;;;;;6.30;2.97;;;;;;;;;;5038644;28;20668;-83
2022/05/19 05:20:33;;;;;;;12.40;3.60;;;;;;;;;;5041165;28;20246;-81
2022/05/19 05:23:00;;;;;;;3.20;3.00;;;;;;;;;;5054009;28;20680;-82
2022/05/19 05:25:29;;;;;;;6.33;3.00;;;;;;;;;;5054877;28;20209;-82
2022/05/19 05:27:57;;;;;;;4.30;3.00;;;;;;;;;;5053863;28;20289;-82
2022/05/19 05:30:25;;;;;;;4.07;3.27;;;;;;;;;;5054070;28;20253;-82
2022/05/19 05:32:52;;;;;;;9.73;3.67;;;;;;;;;;5053855;28;20713;-81
2022/05/19 05:35:19;;;;;;;6.63;3.00;;;;;;;;;;5054018;28;20741;-82
2022/05/19 05:37:47;;;;;;;3.87;2.90;;;;;;;;;;5053868;28;20584;-81
2022/05/19 05:40:15;;;;;;;3.83;2.87;;;;;;;;;;5054382;28;20233;-82
2022/05/19 05:42:44;;;;;;;3.47;2.80;;;;;;;;;;5054293;28;20204;-82
2022/05/19 05:47:52;;;;;;;6.30;3.20;;;;;;;;;;5038489;28;20292;-83
2022/05/19 05:50:20;;;;;;;4.67;2.77;;;;;;;;;;5054276;28;20320;-83
2022/05/19 05:52:47;;;;;;;3.60;3.07;;;;;;;;;;5053671;28;20222;-83
2022/05/19 05:55:14;;;;;;;3.30;2.80;;;;;;;;;;5054076;28;20210;-83
2022/05/19 05:57:41;;;;;;;3.30;3.00;;;;;;;;;;5054587;28;20215;-83
2022/05/19 06:00:11;;;;;;;8.00;3.07;;;;;;;;;;5056626;28;20242;-84
2022/05/19 06:02:38;;;;;;;5.97;2.70;;;;;;;;;;5071830;28;20213;-84
2022/05/19 06:05:06;;;;;;;4.47;3.00;;;;;;;;;;5070636;28;20245;-84
2022/05/19 06:07:33;;;;;;;4.07;2.60;;;;;;;;;;5060323;28;20246;-85
2022/05/19 06:10:00;;;;;;;6.00;2.90;;;;;;;;;;5064408;28;20248;-84
2022/05/19 06:12:27;;;;;;;3.83;2.60;;;;;;;;;;5063441;28;20225;-84
2022/05/19 06:14:56;;;;;;;5.03;2.27;;;;;;;;;;5066066;28;20231;-84
2022/05/19 06:17:24;;;;;;;6.80;2.50;;;;;;;;;;5059965;28;20704;-85
2022/05/19 06:19:52;;;;;;;6.00;2.50;;;;;;;;;;5048676;28;20234;-85
2022/05/19 06:22:21;;;;;;;4.70;2.80;;;;;;;;;;5059517;28;20815;-85
2022/05/19 06:24:48;;;;;;;2.87;2.40;;;;;;;;;;5059194;28;20244;-85
2022/05/19 06:27:15;;;;;;;5.77;2.50;;;;;;;;;;5059054;28;20627;-85
2022/05/19 06:29:42;;;;;;;5.45;2.55;;;;;;;;;;5057390;28;20710;-85
2022/05/19 06:32:10;;;;;;;2.90;2.33;;;;;;;;;;5058735;28;20729;-86
2022/05/19 06:34:38;;;;;;;2.88;2.20;;;;;;;;;;5059918;28;20737;-85
2022/05/19 06:37:05;;;;;;;4.50;2.35;;;;;;;;;;5039438;28;20662;-86
2022/05/19 06:39:32;;;;;;;6.25;2.40;;;;;;;;;;5058999;28;20225;-85
2022/05/19 06:42:03;;;;;;;3.38;2.20;;;;;;;;;;5057935;28;20205;-86
2022/05/19 06:44:31;;;;;;;4.03;2.30;;;;;;;;;;5050308;28;20606;-85
2022/05/19 06:46:58;;;;;;;2.35;2.15;;;;;;;;;;5056249;28;20794;-85
2022/05/19 06:49:25;;;;;;;3.95;2.50;;;;;;;;;;5045747;28;20245;-85
2022/05/19 06:51:54;;;;;;;4.82;2.30;;;;;;;;;;5045966;28;20218;-85
2022/05/19 06:54:21;;;;;;;5.70;2.13;;;;;;;;;;5050131;28;20232;-85
2022/05/19 06:56:49;;;;;;;4.35;2.15;;;;;;;;;;5054075;28;20202;-85
2022/05/19 06:59:16;;;;;;;3.10;1.92;;;;;;;;;;5053181;28;20252;-85
2022/05/19 07:01:44;;;;;;;6.03;1.85;;;;;;;;;;5053840;28;20202;-85
2022/05/19 07:04:11;;;;;;;2.08;1.67;;;;;;;;;;5054102;28;20705;-85
2022/05/19 07:06:38;;;;;;;3.55;1.90;;;;;;;;;;5046980;28;20197;-85
2022/05/19 07:09:07;;;;;;;1.70;1.60;;;;;;;;;;5053763;28;20689;-84
2022/05/19 07:11:34;;;;;;;3.85;1.80;;;;;;;;;;5053283;28;20591;-85
2022/05/19 07:14:02;;;;;;;2.67;2.03;;;;;;;;;;5052074;28;20229;-84
2022/05/19 07:16:30;;;;;;;4.68;1.75;;;;;;;;;;5050871;28;20749;-84
2022/05/19 07:20:43;;;;;;;2.53;1.92;;;;;;;;;;5051355;28;20229;-84
2022/05/19 07:21:44;;;;;;;3.13;2.00;;;;;;;;;;5052039;28;20293;-83
2022/05/19 07:24:15;;;;;;;3.08;1.88;;;;;;;;;;5051166;28;20229;-85
2022/05/19 07:26:42;;;;;;;2.80;2.15;;;;;;;;;;5052736;28;20631;-86
2022/05/19 07:29:09;;;;;;;2.33;1.67;;;;;;;;;;5051021;28;20640;-85
2022/05/19 07:31:37;;;;;;;1.85;1.40;;;;;;;;;;5051859;28;20217;-86
2022/05/19 07:34:04;;;;;;;2.53;2.08;;;;;;;;;;5050722;28;20708;-84
2022/05/19 07:36:31;;;;;;;1.92;1.80;;;;;;;;;;5051497;28;20292;-86
2022/05/19 07:38:59;;;;;;;1.85;1.67;;;;;;;;;;5051266;28;20241;-86
2022/05/19 07:41:28;;;;;;;2.15;1.70;;;;;;;;;;5052103;28;20206;-86
2022/05/19 07:43:55;;;;;;;2.08;1.90;;;;;;;;;;5050406;28;20710;-86
2022/05/19 07:46:23;;;;;;;5.95;2.75;;;;;;;;;;5051326;28;20610;-85
2022/05/19 07:48:50;;;;;;;3.03;2.00;;;;;;;;;;5051384;28;20265;-85
2022/05/19 07:51:17;;;;;;;2.00;1.58;;;;;;;;;;5051824;28;20233;-86
2022/05/19 07:53:44;;;;;;;2.50;2.00;;;;;;;;;;5050608;28;20241;-86
2022/05/19 07:56:11;;;;;;;1.70;1.60;;;;;;;;;;5051012;28;20198;-86
2022/05/19 07:58:40;;;;;;;3.47;1.80;;;;;;;;;;5051189;28;20245;-86
2022/05/19 08:01:07;;;;;;;2.15;1.65;;;;;;;;;;5051291;28;20245;-87
2022/05/19 08:03:35;;;;;;;1.77;1.67;;;;;;;;;;5051286;28;20663;-87
2022/05/19 08:06:04;;;;;;;1.60;1.50;;;;;;;;;;5051062;28;20210;-86
2022/05/19 08:08:31;;;;;;;1.63;1.50;;;;;;;;;;5050596;28;20233;-87
2022/05/19 08:10:58;;;;;;;2.30;1.73;;;;;;;;;;5051304;28;20218;-86
2022/05/19 08:16:11;;;;;;;1.83;1.73;;;;;;;;;;5058276;28;20202;-88
2022/05/19 08:18:38;;;;;;;1.63;1.50;;;;;;;;;;5059725;28;20739;-86
2022/05/19 08:21:06;;;;;;;1.85;1.73;;;;;;;;;;5053571;28;20690;-86
2022/05/19 08:23:34;;;;;;;1.98;1.77;;;;;;;;;;5051240;28;20713;-87
2022/05/19 08:26:02;;;;;;;1.98;1.45;;;;;;;;;;5052989;28;20210;-86
2022/05/19 08:28:30;;;;;;;1.50;1.38;;;;;;;;;;5053362;28;20241;-84
2022/05/19 08:30:58;;;;;;;1.50;1.40;;;;;;;;;;5057369;28;20232;-85
2022/05/19 08:33:27;;;;;;;3.53;1.90;;;;;;;;;;5055454;28;20272;-86
2022/05/19 08:35:54;;;;;;;1.60;1.50;;;;;;;;;;5056733;28;20198;-86
2022/05/19 08:38:21;;;;;;;1.65;1.52;;;;;;;;;;5055672;28;20237;-86
2022/05/19 08:40:49;;;;;;;1.65;1.42;;;;;;;;;;5055724;28;20222;-86
2022/05/19 08:43:18;;;;;;;2.75;1.70;;;;;;;;;;5057153;28;20265;-86
2022/05/19 08:45:47;;;;;;;1.90;1.60;;;;;;;;;;5056070;28;20210;-86
2022/05/19 08:48:16;;;;;;;3.30;1.50;;;;;;;;;;5055968;28;20254;-84
2022/05/19 08:50:48;;;;;;;2.40;1.77;;;;;;;;;;5055909;28;20791;-84
2022/05/19 08:53:16;;;;;;;2.80;1.70;;;;;;;;;;5053241;28;20230;-84
2022/05/19 08:55:43;;;;;;;1.38;1.27;;;;;;;;;;5054588;28;20206;-85
2022/05/19 08:58:15;;;;;;;1.70;1.60;;;;;;;;;;5054372;28;20582;-86
2022/05/19 09:00:43;;;;;;;2.78;1.50;;;;;;;;;;5054781;28;20236;-86
2022/05/19 09:03:19;;;;;;;1.95;1.50;;;;;;;;;;5059360;28;20740;-87
2022/05/19 09:06:01;;;;;;;1.40;1.23;;;;;;;;;;5055714;28;20221;-86
2022/05/19 09:08:36;;;;;;;1.50;1.40;;;;;;;;;;5066652;28;20241;-86
2022/05/19 09:11:07;;;;;;;2.05;1.40;;;;;;;;;;5065917;28;20257;-86
2022/05/19 09:13:37;;;;;;;2.50;1.63;;;;;;;;;;5060610;28;20245;-87
2022/05/19 09:16:08;;;;;;;1.30;1.17;;;;;;;;;;5054467;28;20210;-87
2022/05/19 09:18:37;;;;;;;3.35;1.52;;;;;;;;;;5053948;28;20237;-86
2022/05/19 09:21:06;;;;;;;4.50;1.40;;;;;;;;;;5054556;28;20231;-87
2022/05/19 09:23:35;;;;;;;1.52;1.40;;;;;;;;;;5054225;28;20229;-87
2022/05/19 09:26:05;;;;;;;2.25;1.40;;;;;;;;;;5054114;28;20202;-86
2022/05/19 09:28:32;;;;;;;2.78;1.40;;;;;;;;;;5053652;28;20229;-87
2022/05/19 09:31:00;;;;;;;2.35;1.60;;;;;;;;;;5058061;28;20321;-87
2022/05/19 09:33:31;;;;;;;2.28;1.58;;;;;;;;;;5057053;28;20233;-87
2022/05/19 09:36:00;;;;;;;1.83;1.58;;;;;;;;;;5054034;28;20281;-87
2022/05/19 09:38:33;;;;;;;1.50;1.27;;;;;;;;;;5050947;28;20244;-86
2022/05/19 09:41:04;;;;;;;2.10;1.50;;;;;;;;;;5038859;28;20238;-85
2022/05/19 09:43:33;;;;;;;1.67;1.55;;;;;;;;;;5055546;28;20263;-87
2022/05/19 09:46:04;;;;;;;2.22;1.30;;;;;;;;;;5053818;28;20226;-86
2022/05/19 09:48:33;;;;;;;2.25;1.30;;;;;;;;;;5055153;28;20234;-86
2022/05/19 09:51:03;;;;;;;1.70;1.35;;;;;;;;;;5054807;28;20228;-86
2022/05/19 09:53:32;;;;;;;3.00;1.30;;;;;;;;;;5054989;28;20238;-86
2022/05/19 09:55:59;;;;;;;1.50;1.40;;;;;;;;;;5043519;28;20211;-85
2022/05/19 09:58:27;;;;;;;1.13;1.00;;;;;;;;;;5053221;28;20238;-86
2022/05/19 10:00:55;;;;;;;2.67;1.33;;;;;;;;;;5034364;28;20242;-86
2022/05/19 10:03:25;;;;;;;2.58;1.48;;;;;;;;;;5036354;28;20231;-87
2022/05/19 10:05:55;;;;;;;2.90;1.70;;;;;;;;;;5051231;28;20575;-87
2022/05/19 10:08:27;;;;;;;1.90;1.50;;;;;;;;;;5053458;28;20265;-87
2022/05/19 10:11:01;;;;;;;1.67;1.52;;;;;;;;;;5053385;28;20221;-88
2022/05/19 10:13:31;;;;;;;2.13;1.30;;;;;;;;;;5051167;28;20233;-88
2022/05/19 10:16:03;;;;;;;1.73;1.60;;;;;;;;;;5049865;28;20695;-88
2022/05/19 10:18:41;;;;;;;1.70;1.60;;;;;;;;;;5052017;28;20253;-87
2022/05/19 10:21:15;;;;;;;2.67;1.73;;;;;;;;;;5051756;28;20227;-86
2022/05/19 10:23:50;;;;;;;1.98;1.70;;;;;;;;;;5051919;28;20229;-87
2022/05/19 10:26:26;;;;;;;2.13;1.70;;;;;;;;;;5046891;28;20202;-85
2022/05/19 10:32:04;;;;;;;2.38;2.03;;;;;;;;;;4971483;28;20243;-85
2022/05/19 10:34:39;;;;;;;3.58;1.80;;;;;;;;;;5034653;28;20268;-86
2022/05/19 10:37:07;;;;;;;2.03;1.73;;;;;;;;;;5052504;28;20197;-85
2022/05/19 10:39:42;;;;;;;1.80;1.70;;;;;;;;;;5052235;28;20262;-85
2022/05/19 10:42:15;;;;;;;1.73;1.63;;;;;;;;;;5052388;28;20209;-86
2022/05/19 10:44:57;;;;;;;3.80;2.20;;;;;;;;;;5052353;28;20242;-85
2022/05/19 10:47:32;;;;;;;2.15;1.98;;;;;;;;;;5043620;28;20214;-86
2022/05/19 10:50:12;;;;;;;1.75;1.65;;;;;;;;;;5070459;28;20230;-87
2022/05/19 10:52:45;;;;;;;4.97;1.90;;;;;;;;;;5057760;28;20194;-86
2022/05/19 10:55:17;;;;;;;2.33;1.80;;;;;;;;;;5053760;28;20304;-86
2022/05/19 10:58:12;;;;;;;2.38;2.17;;;;;;;;;;5053273;28;20278;-85
2022/05/19 11:00:47;;;;;;;1.70;1.60;;;;;;;;;;5053063;28;20614;-86
2022/05/19 11:03:25;;;;;;;2.13;1.70;;;;;;;;;;5052324;28;20265;-86
2022/05/19 11:06:00;;;;;;;2.95;2.00;;;;;;;;;;5052651;28;20221;-86
2022/05/19 11:08:34;;;;;;;5.32;2.38;;;;;;;;;;5051370;28;20236;-86
2022/05/19 11:11:05;;;;;;;2.28;1.80;;;;;;;;;;5052200;28;20226;-86
2022/05/19 11:13:40;;;;;;;3.45;2.10;;;;;;;;;;5051597;28;20241;-88
2022/05/19 11:16:11;;;;;;;1.67;1.52;;;;;;;;;;5052060;28;20537;-87
2022/05/19 11:18:41;;;;;;;4.30;1.63;;;;;;;;;;5051689;28;20697;-87
2022/05/19 11:21:14;;;;;;;1.92;1.83;;;;;;;;;;5052084;28;20717;-87
2022/05/19 11:23:45;;;;;;;2.28;1.80;;;;;;;;;;5051829;28;20226;-87
2022/05/19 11:26:27;;;;;;;2.05;1.80;;;;;;;;;;5051887;28;20214;-86
2022/05/19 11:29:09;;;;;;;2.05;1.70;;;;;;;;;;5051845;28;20228;-85
2022/05/19 11:31:39;;;;;;;2.65;2.00;;;;;;;;;;5052336;28;20241;-86
2022/05/19 11:34:17;;;;;;;1.70;1.60;;;;;;;;;;5044998;28;20229;-85
2022/05/19 11:36:45;;;;;;;2.10;1.90;;;;;;;;;;5051567;28;20205;-86
2022/05/19 11:39:16;;;;;;;2.00;1.50;;;;;;;;;;5050424;28;20268;-86
2022/05/19 11:41:44;;;;;;;2.10;1.80;;;;;;;;;;5051285;28;20236;-84
2022/05/19 11:44:18;;;;;;;2.15;1.90;;;;;;;;;;5050612;28;20225;-85
2022/05/19 11:46:48;;;;;;;2.17;1.98;;;;;;;;;;5051250;28;20662;-87
2022/05/19 11:55:17;;;;;;;1.77;1.65;;;;;;;;;;5051338;28;20236;-84
2022/05/19 11:57:47;;;;;;;3.08;2.20;;;;;;;;;;5052284;28;20255;-84
2022/05/19 12:00:20;;;;;;;1.80;1.70;;;;;;;;;;5044570;28;20236;-86
2022/05/19 12:02:49;;;;;;;2.97;1.90;;;;;;;;;;5042136;28;20170;-87
2022/05/19 12:05:23;;;;;;;2.95;1.75;;;;;;;;;;5037986;28;20667;-87
2022/05/19 12:07:51;;;;;;;2.15;1.85;;;;;;;;;;5036123;28;20245;-86
2022/05/19 12:10:21;;;;;;;1.80;1.70;;;;;;;;;;5036639;28;20267;-87
2022/05/19 12:12:54;;;;;;;2.13;2.00;;;;;;;;;;5042297;28;20198;-89
2022/05/19 12:15:23;;;;;;;2.17;1.92;;;;;;;;;;5056984;28;20260;-89
2022/05/19 12:17:56;;;;;;;3.13;1.95;;;;;;;;;;5056891;28;20208;-88
2022/05/19 12:20:51;;;;;;;2.95;2.00;;;;;;;;;;5056370;28;20256;-91
2022/05/19 12:23:25;;;;;;;2.67;2.10;;;;;;;;;;5009464;28;20225;-89
2022/05/19 12:25:53;;;;;;;3.72;2.28;;;;;;;;;;5058073;28;20224;-90
2022/05/19 12:28:44;;;;;;;2.50;2.10;;;;;;;;;;5059127;28;20229;-90
2022/05/19 12:34:06;;;;;;;2.40;2.20;;;;;;;;;;5057231;28;20247;-87
2022/05/19 12:36:37;;;;;;;3.70;2.55;;;;;;;;;;5059279;28;20208;-88
2022/05/19 12:39:12;;;;;;;4.75;2.42;;;;;;;;;;5058413;28;20233;-90
2022/05/19 12:41:41;;;;;;;2.45;2.25;;;;;;;;;;5059114;28;20205;-88
2022/05/19 12:44:28;;;;;;;2.53;2.33;;;;;;;;;;5057062;28;20229;-88
2022/05/19 12:47:00;;;;;;;3.85;2.50;;;;;;;;;;5057252;28;20213;-89
2022/05/19 12:49:29;;;;;;;3.20;2.53;;;;;;;;;;5056456;28;20613;-89
2022/05/19 12:51:57;;;;;;;3.70;2.47;;;;;;;;;;5056839;28;20201;-89
2022/05/19 12:54:25;;;;;;;3.95;2.40;;;;;;;;;;5055342;28;20233;-90
2022/05/19 12:56:55;;;;;;;3.08;2.42;;;;;;;;;;5056060;28;20206;-90
2022/05/19 12:59:40;;;;;;;5.18;2.47;;;;;;;;;;5055526;28;20291;-88
2022/05/19 13:02:10;;;;;;;3.65;2.60;;;;;;;;;;5057057;28;20192;-89
2022/05/19 13:04:42;;;;;;;3.17;2.50;;;;;;;;;;5057667;28;20291;-89
2022/05/19 13:07:14;;;;;;;3.13;2.50;;;;;;;;;;5055488;28;20567;-88
2022/05/19 13:09:41;;;;;;;3.15;2.22;;;;;;;;;;5054707;28;20240;-89
2022/05/19 13:12:11;;;;;;;3.78;2.72;;;;;;;;;;5055517;28;20209;-87
2022/05/19 13:14:42;;;;;;;5.05;2.50;;;;;;;;;;5053201;28;20261;-86
2022/05/19 13:17:12;;;;;;;6.55;2.90;;;;;;;;;;5056480;28;20193;-87
2022/05/19 13:19:40;;;;;;;4.38;2.53;;;;;;;;;;5057325;28;20670;-86
2022/05/19 13:22:09;;;;;;;3.22;2.42;;;;;;;;;;5055560;28;20212;-89
2022/05/19 13:24:37;;;;;;;4.07;2.25;;;;;;;;;;5056756;28;20256;-87
2022/05/19 13:32:38;;;;;;;2.85;2.65;;;;;;;;;;5056448;28;20185;-89
2022/05/19 13:35:08;;;;;;;3.58;2.38;;;;;;;;;;5055720;28;20264;-87
2022/05/19 13:37:36;;;;;;;4.22;2.35;;;;;;;;;;5054221;28;20190;-86
2022/05/19 13:40:13;;;;;;;5.40;3.35;;;;;;;;;;5054968;28;20248;-86
2022/05/19 13:42:44;;;;;;;5.35;2.83;;;;;;;;;;5054180;28;20185;-87
2022/05/19 13:45:12;;;;;;;2.67;2.47;;;;;;;;;;5054109;28;20343;-86
2022/05/19 13:47:41;;;;;;;3.22;2.67;;;;;;;;;;5054081;28;20210;-86
2022/05/19 13:50:11;;;;;;;4.20;2.35;;;;;;;;;;5054237;28;20242;-86
2022/05/19 13:52:44;;;;;;;4.65;2.70;;;;;;;;;;5054446;28;20201;-86
2022/05/19 13:55:22;;;;;;;4.63;2.55;;;;;;;;;;5053333;28;20218;-86
2022/05/19 13:57:51;;;;;;;4.38;2.38;;;;;;;;;;5053632;28;20236;-88
2022/05/19 14:00:18;;;;;;;8.43;2.30;;;;;;;;;;5053252;28;20287;-86
2022/05/19 14:02:53;;;;;;;6.10;3.05;;;;;;;;;;5053918;28;20215;-87
2022/05/19 14:05:23;;;;;;;4.80;2.80;;;;;;;;;;5052820;28;20197;-87
2022/05/19 14:07:51;;;;;;;3.80;2.90;;;;;;;;;;5052753;28;20209;-86
2022/05/19 14:10:20;;;;;;;4.30;2.60;;;;;;;;;;5052860;28;20221;-86
2022/05/19 14:12:51;;;;;;;3.10;2.50;;;;;;;;;;5052948;28;20261;-86
2022/05/19 14:15:23;;;;;;;4.03;2.67;;;;;;;;;;5052716;28;20214;-86
2022/05/19 14:17:54;;;;;;;4.05;2.65;;;;;;;;;;5053809;28;20201;-88
2022/05/19 14:20:23;;;;;;;4.70;2.58;;;;;;;;;;5054033;28;20240;-88
2022/05/19 14:22:51;;;;;;;3.08;2.47;;;;;;;;;;5052867;28;20190;-88
2022/05/19 14:25:20;;;;;;;3.05;2.75;;;;;;;;;;5054473;28;20202;-88
2022/05/19 14:27:47;;;;;;;4.70;2.95;;;;;;;;;;5053250;28;20206;-87
2022/05/19 14:30:16;;;;;;;3.85;2.63;;;;;;;;;;5054139;28;20316;-87
2022/05/19 14:32:57;;;;;;;3.40;2.30;;;;;;;;;;5050254;28;20209;-87
2022/05/19 14:35:25;;;;;;;5.05;2.60;;;;;;;;;;5052656;28;20242;-88
2022/05/19 14:37:53;;;;;;;3.33;2.80;;;;;;;;;;5052702;28;20685;-87
2022/05/19 14:43:09;;;;;;;3.17;2.90;;;;;;;;;;5053189;28;20240;-86
2022/05/19 14:45:38;;;;;;;3.38;2.80;;;;;;;;;;5056428;28;20194;-87
2022/05/19 14:48:09;;;;;;;5.05;2.80;;;;;;;;;;5054698;28;24145;-87
2022/05/19 14:50:36;;;;;;;3.08;2.80;;;;;;;;;;5053661;28;20222;-86
2022/05/19 14:53:05;;;;;;;3.22;2.90;;;;;;;;;;5054039;28;20213;-87
2022/05/19 14:55:36;;;;;;;6.47;2.80;;;;;;;;;;5055286;28;20226;-86
2022/05/19 14:58:05;;;;;;;5.50;4.00;;;;;;;;;;5053000;28;20187;-86
2022/05/19 15:00:33;;;;;;;3.92;3.13;;;;;;;;;;5053765;28;20528;-88
2022/05/19 15:03:00;;;;;;;4.60;2.90;;;;;;;;;;5052997;28;20233;-88
2022/05/19 15:05:29;;;;;;;5.45;2.88;;;;;;;;;;5055632;28;20217;-86
2022/05/19 15:07:59;;;;;;;4.70;2.58;;;;;;;;;;5053099;28;20313;-88
2022/05/19 15:10:27;;;;;;;5.72;3.08;;;;;;;;;;5053255;28;20241;-88
2022/05/19 15:12:54;;;;;;;4.43;3.08;;;;;;;;;;5053852;28;20241;-90
2022/05/19 15:15:21;;;;;;;2.75;2.53;;;;;;;;;;5055204;28;20237;-87
2022/05/19 15:17:48;;;;;;;2.72;2.50;;;;;;;;;;5054113;28;20212;-87
2022/05/19 15:20:20;;;;;;;4.43;2.97;;;;;;;;;;5054205;28;20218;-87
2022/05/19 15:22:48;;;;;;;3.10;2.50;;;;;;;;;;5053688;28;20206;-87